CheckWX is a tool to help pilots better visualize weather data.  It is not intended as a substitute for an official pre-flight weather briefing.

02:09:57 UTC

ETEB TAF
Ansbach Army Heliport
Germany
TAF ETEB 182210Z 1822/2004 25009KT 9999 SCT060 QNH3015INS BECMG 1903/1904 VRB06KT 6000 BR BKN025 QNH3020INS BECMG 1907/1908 VRB06KT 9999 NSW BKN030 QNH3024INS BECMG 1909/1910 33006KT 9999 SCT025 QNH3029INS TX07/1915Z TNM02/1903Z

Mar-18@
22:00 UTC

Mar-18 @ 22:00 UTC

Mar-19@
03:00 UTC

Mar-19 @ 03:00 UTC

TAF ETEB 182210Z 1822/2004 25009KT 9999 SCT060 QNH3015INS
Wind
  • 250° at 9 KTS
Cloud Levels
  • Scattered at 6,000' AGL

Mar-19@
03:00 UTC

Mar-19 @ 03:00 UTC

Mar-19@
07:00 UTC

Mar-19 @ 07:00 UTC

BECMG 1903/1904 VRB06KT 6000 BR BKN025 QNH3020INS

Becoming

Becoming Conditions expected by Tue, Mar 19, 2019 @ 04:00 UTC

Wind
  • Variable at 6 KTS
Conditions
Mist
Cloud Levels
  • Broken at 2,500' AGL

Mar-19@
07:00 UTC

Mar-19 @ 07:00 UTC

Mar-19@
09:00 UTC

Mar-19 @ 09:00 UTC

BECMG 1907/1908 VRB06KT 9999 NSW BKN030 QNH3024INS

Becoming

Becoming Conditions expected by Tue, Mar 19, 2019 @ 08:00 UTC

Wind
  • Variable at 6 KTS
Conditions
No significant weather
Cloud Levels
  • Broken at 3,000' AGL

Mar-19@
09:00 UTC

Mar-19 @ 09:00 UTC

Mar-20@
04:00 UTC

Mar-20 @ 04:00 UTC

BECMG 1909/1910 33006KT 9999 SCT025 QNH3029INS TX07/1915Z TNM02/1903Z

Becoming

Becoming Conditions expected by Tue, Mar 19, 2019 @ 10:00 UTC

Wind
  • 330° at 6 KTS
Conditions
No significant weather
Cloud Levels
  • Scattered at 2,500' AGL